createdAt,value
2023-02-24T00:02:05.998Z,74.30
2023-02-24T00:04:39.673Z,63.27
2023-02-24T00:07:16.917Z,65.60
2023-02-24T00:09:49.022Z,65.23
2023-02-24T00:12:17.139Z,64.23
2023-02-24T00:14:45.672Z,65.50
2023-02-24T00:17:16.552Z,65.20
2023-02-24T00:19:44.206Z,64.73
2023-02-24T00:22:12.804Z,64.87
2023-02-24T00:24:40.247Z,64.13
2023-02-24T00:27:08.142Z,63.93
2023-02-24T00:29:40.234Z,63.00
2023-02-24T00:32:12.584Z,63.67
2023-02-24T00:34:40.947Z,63.33
2023-02-24T00:37:08.499Z,65.10
2023-02-24T00:39:41.696Z,65.93
2023-02-24T00:42:11.682Z,64.00
2023-02-24T00:44:46.278Z,64.97
2023-02-24T00:47:17.073Z,64.00
2023-02-24T00:49:44.777Z,64.00
2023-02-24T00:52:20.633Z,65.93
2023-02-24T00:54:49.755Z,64.20
2023-02-24T00:57:23.436Z,65.47
2023-02-24T00:59:51.985Z,66.60
2023-02-24T01:02:19.989Z,66.87
2023-02-24T01:04:49.992Z,64.97
2023-02-24T01:07:17.431Z,65.23
2023-02-24T01:09:45.088Z,65.80
2023-02-24T01:12:32.105Z,73.27
2023-02-24T01:14:59.702Z,68.27
2023-02-24T01:17:27.154Z,67.47
2023-02-24T01:19:55.158Z,70.07
2023-02-24T01:22:23.909Z,73.03
2023-02-24T01:24:51.087Z,70.10
2023-02-24T01:27:19.570Z,62.60
2023-02-24T01:29:49.918Z,64.90
2023-02-24T01:32:21.241Z,64.10
2023-02-24T01:34:52.302Z,64.30
2023-02-24T01:37:20.706Z,65.27
2023-02-24T01:39:49.653Z,70.00
2023-02-24T01:42:20.423Z,71.70
2023-02-24T01:44:48.075Z,69.40
2023-02-24T01:47:20.907Z,67.37
2023-02-24T01:49:53.073Z,71.23
2023-02-24T01:52:27.389Z,64.37
2023-02-24T01:55:15.072Z,67.60
2023-02-24T01:57:43.320Z,63.97
2023-02-24T02:00:40.400Z,66.23
2023-02-24T02:03:31.862Z,65.87
2023-02-24T02:06:03.878Z,67.47
2023-02-24T02:08:32.591Z,65.97
2023-02-24T02:11:07.031Z,65.33
2023-02-24T02:13:35.966Z,64.80
2023-02-24T02:16:21.318Z,70.40
2023-02-24T02:19:00.696Z,64.57
2023-02-24T02:21:56.680Z,64.73
2023-02-24T02:24:55.250Z,64.67
2023-02-24T02:28:22.752Z,63.30
2023-02-24T02:31:28.994Z,63.27
2023-02-24T02:34:27.618Z,64.93
2023-02-24T02:37:13.923Z,63.97
2023-02-24T02:39:47.370Z,63.57
2023-02-24T02:42:24.330Z,64.23
2023-02-24T02:45:14.838Z,63.73
2023-02-24T02:47:55.959Z,64.53
2023-02-24T02:50:28.516Z,62.70
2023-02-24T02:53:08.195Z,65.63
2023-02-24T02:55:59.567Z,63.30
2023-02-24T02:58:31.877Z,64.00
2023-02-24T03:01:02.769Z,64.30
2023-02-24T03:03:53.716Z,64.47
2023-02-24T03:06:31.176Z,65.70
2023-02-24T03:09:16.016Z,64.30
2023-02-24T03:11:53.801Z,65.97
2023-02-24T03:14:27.173Z,67.20
2023-02-24T03:16:55.877Z,66.73
2023-02-24T03:19:32.175Z,66.80
2023-02-24T03:22:13.587Z,67.23
2023-02-24T03:24:45.086Z,65.93
2023-02-24T03:27:44.981Z,67.70
2023-02-24T03:30:22.301Z,66.47
2023-02-24T03:32:59.760Z,65.67
2023-02-24T03:35:34.436Z,68.37
2023-02-24T03:38:04.153Z,65.53
2023-02-24T03:40:34.252Z,66.80
2023-02-24T03:43:32.606Z,68.80
2023-02-24T03:46:01.511Z,66.93
2023-02-24T03:48:30.343Z,66.67
2023-02-24T03:50:59.499Z,64.70
2023-02-24T03:53:53.356Z,66.83
2023-02-24T03:56:22.429Z,66.80
2023-02-24T03:59:35.629Z,69.73
2023-02-24T04:02:19.669Z,68.20
2023-02-24T04:05:10.446Z,68.43
2023-02-24T04:08:04.129Z,68.17
2023-02-24T04:11:05.716Z,67.23
2023-02-24T04:13:47.388Z,67.63
2023-02-24T04:16:29.040Z,69.60
2023-02-24T04:19:09.183Z,67.87
2023-02-24T04:21:39.135Z,68.03
2023-02-24T04:24:15.255Z,68.80
2023-02-24T04:26:47.045Z,68.70
2023-02-24T04:29:23.911Z,70.00
2023-02-24T04:31:58.649Z,74.47
2023-02-24T04:34:26.481Z,70.03
2023-02-24T04:36:54.108Z,70.30
2023-02-24T04:39:23.558Z,72.37
2023-02-24T04:41:54.932Z,70.77
2023-02-24T04:44:22.703Z,72.23
2023-02-24T04:46:51.102Z,71.77
2023-02-24T04:49:20.046Z,70.67
2023-02-24T04:51:47.387Z,71.80
2023-02-24T04:54:20.026Z,70.00
2023-02-24T04:56:50.931Z,72.73
2023-02-24T04:59:19.873Z,71.67
2023-02-24T05:01:51.246Z,70.20
2023-02-24T05:04:18.898Z,72.07
2023-02-24T05:06:46.842Z,71.63
2023-02-24T05:09:18.249Z,74.20
2023-02-24T05:11:50.678Z,73.63
2023-02-24T05:14:25.000Z,70.80
2023-02-24T05:16:53.015Z,72.77
2023-02-24T05:19:39.422Z,70.67
2023-02-24T05:22:10.364Z,72.07
2023-02-24T05:24:38.651Z,71.47
2023-02-24T05:27:06.137Z,72.43
2023-02-24T05:29:35.528Z,71.30
2023-02-24T05:32:04.756Z,70.60
2023-02-24T05:34:33.636Z,73.00
2023-02-24T05:37:10.195Z,70.47
2023-02-24T05:39:37.980Z,73.53
2023-02-24T05:42:06.890Z,73.23
2023-02-24T05:44:35.800Z,74.00
2023-02-24T05:47:05.542Z,71.77
2023-02-24T05:49:35.278Z,73.23
2023-02-24T05:52:08.972Z,70.53
2023-02-24T05:54:42.647Z,70.77
2023-02-24T05:57:13.471Z,70.60
2023-02-24T05:59:41.997Z,74.17
2023-02-24T06:02:13.148Z,71.30
2023-02-24T06:04:51.603Z,69.47
2023-02-24T06:07:25.971Z,71.40
2023-02-24T06:09:57.344Z,71.47
2023-02-24T06:12:39.865Z,71.07
2023-02-24T06:15:08.301Z,70.10
2023-02-24T06:17:35.781Z,69.73
2023-02-24T06:20:13.149Z,70.03
2023-02-24T06:22:42.487Z,69.40
2023-02-24T06:25:12.002Z,68.40
2023-02-24T06:27:39.454Z,69.60
2023-02-24T06:30:10.395Z,70.23
2023-02-24T06:32:38.133Z,67.93
2023-02-24T06:35:06.140Z,68.33
2023-02-24T06:37:35.846Z,69.20
2023-02-24T06:40:09.035Z,72.83
2023-02-24T06:42:36.308Z,69.43
2023-02-24T06:45:04.403Z,68.83
2023-02-24T06:47:32.665Z,72.43
2023-02-24T06:50:00.108Z,68.17
2023-02-24T06:52:27.273Z,71.27
2023-02-24T06:54:54.698Z,78.40
2023-02-24T06:57:23.560Z,81.17
2023-02-24T06:59:50.993Z,79.43
2023-02-24T07:02:18.408Z,74.07
2023-02-24T07:04:45.962Z,71.70
2023-02-24T07:07:17.427Z,80.77
2023-02-24T07:09:45.489Z,71.70
2023-02-24T07:12:13.209Z,71.00
2023-02-24T07:14:40.592Z,70.03
2023-02-24T07:17:08.639Z,68.23
2023-02-24T07:19:36.815Z,68.57
2023-02-24T07:22:04.919Z,75.77
2023-02-24T07:24:39.289Z,75.30
2023-02-24T07:27:12.425Z,72.83
2023-02-24T07:29:39.924Z,71.00
2023-02-24T07:32:09.453Z,86.77
2023-02-24T07:34:40.233Z,72.10
2023-02-24T07:37:09.000Z,84.93
2023-02-24T07:39:40.662Z,77.53
2023-02-24T07:42:10.453Z,79.33
2023-02-24T07:44:46.697Z,72.03
2023-02-24T07:47:16.021Z,71.80
2023-02-24T07:49:43.807Z,69.00
2023-02-24T07:52:11.704Z,66.97
2023-02-24T07:54:39.541Z,67.53
2023-02-24T07:57:13.701Z,69.07
2023-02-24T07:59:47.628Z,69.77
2023-02-24T08:02:15.861Z,68.33
2023-02-24T08:04:48.250Z,69.40
2023-02-24T08:07:16.199Z,68.93
2023-02-24T08:10:04.057Z,66.33
2023-02-24T08:12:31.160Z,65.97
2023-02-24T08:15:00.289Z,64.77
2023-02-24T08:17:28.092Z,64.97
2023-02-24T08:20:14.663Z,65.43
2023-02-24T08:22:46.648Z,65.10
2023-02-24T08:25:19.637Z,64.73
2023-02-24T08:28:12.969Z,64.43
2023-02-24T08:30:47.751Z,64.40
2023-02-24T08:33:22.036Z,63.97
2023-02-24T08:36:02.557Z,64.57
2023-02-24T08:38:41.989Z,63.93
2023-02-24T08:41:18.428Z,62.83
2023-02-24T08:43:47.172Z,63.50
2023-02-24T08:46:32.825Z,66.57
2023-02-24T08:49:00.920Z,63.63
2023-02-24T08:51:34.739Z,64.33
2023-02-24T08:54:15.372Z,63.43
2023-02-24T08:56:49.298Z,62.37
2023-02-24T08:59:38.477Z,64.33
2023-02-24T09:02:19.191Z,64.73
2023-02-24T09:04:53.351Z,65.83
2023-02-24T09:07:27.697Z,64.03
2023-02-24T09:09:58.882Z,63.57
2023-02-24T09:12:29.256Z,63.87
2023-02-24T09:15:04.794Z,62.67
2023-02-24T09:17:50.012Z,65.27
2023-02-24T09:20:28.004Z,64.73
2023-02-24T09:23:09.716Z,69.23
2023-02-24T09:25:44.923Z,66.17
2023-02-24T09:28:18.619Z,67.73
2023-02-24T09:30:58.852Z,66.97
2023-02-24T09:33:41.579Z,79.20
2023-02-24T09:36:20.760Z,68.27
2023-02-24T09:38:59.830Z,67.27
2023-02-24T09:42:03.895Z,69.93
2023-02-24T09:44:37.286Z,66.37
2023-02-24T09:47:31.291Z,69.07
2023-02-24T09:50:32.969Z,66.57
2023-02-24T09:53:14.228Z,82.03
2023-02-24T09:56:09.936Z,94.73
2023-02-24T09:58:58.672Z,81.67
2023-02-24T10:01:34.561Z,97.20
2023-02-24T10:04:27.479Z,115.47
2023-02-24T10:07:09.110Z,89.33
2023-02-24T10:10:19.510Z,82.47
2023-02-24T10:13:15.111Z,88.27
2023-02-24T10:15:58.707Z,70.63
2023-02-24T10:18:30.745Z,69.60
2023-02-24T10:21:15.631Z,74.77
2023-02-24T10:24:29.378Z,65.97
2023-02-24T10:27:01.186Z,61.57
2023-02-24T10:30:04.650Z,61.33
2023-02-24T10:32:51.874Z,59.93
2023-02-24T10:35:22.080Z,57.40
2023-02-24T10:37:49.397Z,72.00
2023-02-24T10:40:26.606Z,72.67
2023-02-24T10:43:10.625Z,58.10
2023-02-24T10:45:47.358Z,56.23
2023-02-24T10:48:41.495Z,59.17
2023-02-24T10:51:30.269Z,58.37
2023-02-24T10:54:25.020Z,56.90
2023-02-24T10:57:00.703Z,54.87
2023-02-24T10:59:48.214Z,55.40
2023-02-24T11:02:24.731Z,56.90
2023-02-24T11:05:03.192Z,54.10
2023-02-24T11:07:45.262Z,53.33
2023-02-24T11:10:26.457Z,54.73
2023-02-24T11:13:14.263Z,58.37
2023-02-24T11:16:12.883Z,61.87
2023-02-24T11:18:45.720Z,56.00
2023-02-24T11:21:14.488Z,59.33
2023-02-24T11:23:48.399Z,60.03
2023-02-24T11:26:20.433Z,57.07
2023-02-24T11:29:17.577Z,57.03
2023-02-24T11:32:14.127Z,55.67
2023-02-24T11:34:59.535Z,55.53
2023-02-24T11:37:43.401Z,55.50
2023-02-24T11:40:17.452Z,57.73
2023-02-24T11:43:07.393Z,56.97
2023-02-24T11:45:54.322Z,57.53
2023-02-24T11:48:34.062Z,57.23
2023-02-24T11:51:04.533Z,56.23
2023-02-24T11:53:46.798Z,56.50
2023-02-24T11:56:36.347Z,56.93
2023-02-24T11:59:12.881Z,57.60
2023-02-24T12:02:05.658Z,56.73
2023-02-24T12:05:02.720Z,55.60
2023-02-24T12:07:39.722Z,55.23
2023-02-24T12:10:31.584Z,55.53
2023-02-24T12:13:32.796Z,56.17
2023-02-24T12:16:17.813Z,54.43
2023-02-24T12:19:32.260Z,56.90
2023-02-24T12:22:14.566Z,56.63
2023-02-24T12:24:51.768Z,55.20
2023-02-24T12:28:18.665Z,57.33
2023-02-24T12:30:49.153Z,67.13
2023-02-24T12:33:49.496Z,53.97
2023-02-24T12:36:19.449Z,56.70
2023-02-24T12:38:58.755Z,55.50
2023-02-24T12:41:45.064Z,55.07
2023-02-24T12:44:33.359Z,61.73
2023-02-24T12:47:14.356Z,57.80
2023-02-24T12:49:46.621Z,84.50
2023-02-24T12:52:58.893Z,59.07
2023-02-24T12:55:41.110Z,58.10
2023-02-24T12:58:14.598Z,58.73
2023-02-24T13:01:00.528Z,56.13
2023-02-24T13:03:56.715Z,67.57
2023-02-24T13:06:38.538Z,62.87
2023-02-24T13:09:26.729Z,63.13
2023-02-24T13:12:05.934Z,78.70
2023-02-24T13:14:33.400Z,68.73
2023-02-24T13:17:23.460Z,64.13
2023-02-24T13:19:53.876Z,63.53
2023-02-24T13:22:26.502Z,65.37
2023-02-24T13:25:08.881Z,60.83
2023-02-24T13:27:39.608Z,59.13
2023-02-24T13:30:12.482Z,59.23
2023-02-24T13:32:44.449Z,56.87
2023-02-24T13:35:18.033Z,58.80
2023-02-24T13:37:47.681Z,59.20
2023-02-24T13:40:23.592Z,60.77
2023-02-24T13:42:57.188Z,57.40
2023-02-24T13:45:36.290Z,60.43
2023-02-24T13:48:57.645Z,59.13
2023-02-24T13:51:53.445Z,59.73
2023-02-24T13:54:51.009Z,58.90
2023-02-24T13:57:36.810Z,66.13
2023-02-24T14:00:25.031Z,66.83
2023-02-24T14:02:53.381Z,57.83
2023-02-24T14:05:33.272Z,59.50
2023-02-24T14:08:01.075Z,59.10
2023-02-24T14:10:31.691Z,59.20
2023-02-24T14:13:18.309Z,58.40
2023-02-24T14:15:47.306Z,62.77
2023-02-24T14:18:27.672Z,61.43
2023-02-24T14:20:56.806Z,67.53
2023-02-24T14:23:29.915Z,65.87
2023-02-24T14:26:05.680Z,66.43
2023-02-24T14:28:39.552Z,66.40
2023-02-24T14:31:13.206Z,63.73
2023-02-24T14:33:43.166Z,63.17
2023-02-24T14:36:26.623Z,59.70
2023-02-24T14:39:22.943Z,61.43
2023-02-24T14:41:52.356Z,67.90
2023-02-24T14:44:27.080Z,64.13
2023-02-24T14:47:07.825Z,74.93
2023-02-24T14:49:36.289Z,66.63
2023-02-24T14:52:17.005Z,72.83
2023-02-24T14:54:57.734Z,67.60
2023-02-24T14:57:30.628Z,76.53
2023-02-24T15:00:12.289Z,75.93
2023-02-24T15:02:46.860Z,59.80
2023-02-24T15:05:14.378Z,58.73
2023-02-24T15:07:45.363Z,59.13
2023-02-24T15:10:38.942Z,61.77
2023-02-24T15:13:11.112Z,60.93
2023-02-24T15:15:39.508Z,58.40
2023-02-24T15:18:20.074Z,58.60
2023-02-24T15:20:47.610Z,61.70
2023-02-24T15:23:30.833Z,63.57
2023-02-24T15:25:58.306Z,58.70
2023-02-24T15:28:37.389Z,60.53
2023-02-24T15:31:21.433Z,59.43
2023-02-24T15:34:00.319Z,60.50
2023-02-24T15:36:34.646Z,60.83
2023-02-24T15:39:10.591Z,59.90
2023-02-24T15:41:41.528Z,59.57
2023-02-24T15:44:30.450Z,57.30
2023-02-24T15:47:00.240Z,58.40
2023-02-24T15:49:27.769Z,60.20
2023-02-24T15:51:59.643Z,58.77
2023-02-24T15:54:34.981Z,60.77
2023-02-24T15:57:05.333Z,60.27
2023-02-24T15:59:32.820Z,61.30
2023-02-24T16:02:00.244Z,63.03
2023-02-24T16:04:27.875Z,61.40
2023-02-24T16:06:57.699Z,60.30
2023-02-24T16:09:33.736Z,62.30
2023-02-24T16:12:07.150Z,67.53
2023-02-24T16:14:34.883Z,76.17
2023-02-24T16:17:08.929Z,66.07
2023-02-24T16:19:37.267Z,65.23
2023-02-24T16:22:04.681Z,89.10
2023-02-24T16:24:32.078Z,61.10
2023-02-24T16:26:59.543Z,58.80
2023-02-24T16:29:27.054Z,68.57
2023-02-24T16:31:54.667Z,66.23
2023-02-24T16:34:22.326Z,63.03
2023-02-24T16:36:49.814Z,64.63
2023-02-24T16:39:17.322Z,64.83
2023-02-24T16:41:44.815Z,66.23
2023-02-24T16:44:12.327Z,62.40
2023-02-24T16:46:41.303Z,66.60
2023-02-24T16:49:14.063Z,63.07
2023-02-24T16:51:41.504Z,62.67
2023-02-24T16:54:09.071Z,65.90
2023-02-24T16:56:36.571Z,58.40
2023-02-24T16:59:04.356Z,57.53
2023-02-24T17:01:32.015Z,55.63
2023-02-24T17:03:59.537Z,55.23
2023-02-24T17:06:27.873Z,56.03
2023-02-24T17:08:55.815Z,56.97
2023-02-24T17:11:26.664Z,57.37
2023-02-24T17:13:54.161Z,58.83
2023-02-24T17:16:21.975Z,59.60
2023-02-24T17:18:49.604Z,55.50
2023-02-24T17:21:18.158Z,56.07
2023-02-24T17:23:45.928Z,56.07
2023-02-24T17:26:16.494Z,58.20
2023-02-24T17:28:44.178Z,56.37
2023-02-24T17:31:12.413Z,58.00
2023-02-24T17:33:41.005Z,59.07
2023-02-24T17:36:08.199Z,60.77
2023-02-24T17:38:35.709Z,58.00
2023-02-24T17:41:03.301Z,58.50
2023-02-24T17:43:30.787Z,59.30
2023-02-24T17:45:58.315Z,57.57
2023-02-24T17:48:25.755Z,62.17
2023-02-24T17:50:53.516Z,69.00
2023-02-24T17:53:20.934Z,82.03
2023-02-24T17:56:02.048Z,89.83
2023-02-24T17:58:30.655Z,102.43
2023-02-24T18:00:58.203Z,122.43
2023-02-24T18:03:25.681Z,124.97
2023-02-24T18:06:01.398Z,100.67
2023-02-24T18:08:30.550Z,103.70
2023-02-24T18:10:59.181Z,91.23
2023-02-24T18:13:29.081Z,87.33
2023-02-24T18:15:56.632Z,85.23
2023-02-24T18:18:25.634Z,68.97
2023-02-24T18:20:53.156Z,68.50
2023-02-24T18:23:20.662Z,78.17
2023-02-24T18:25:48.119Z,86.57
2023-02-24T18:28:15.589Z,136.03
2023-02-24T18:30:43.074Z,118.23
2023-02-24T18:33:10.768Z,118.87
2023-02-24T18:35:38.893Z,106.23
2023-02-24T18:38:06.622Z,78.27
2023-02-24T18:40:34.030Z,80.87
2023-02-24T18:43:01.526Z,75.97
2023-02-24T18:45:29.186Z,74.70
2023-02-24T18:47:56.704Z,79.37
2023-02-24T18:50:25.187Z,89.20
2023-02-24T18:52:52.749Z,93.63
2023-02-24T18:55:22.174Z,86.77
2023-02-24T18:57:49.699Z,75.10
2023-02-24T19:00:17.437Z,68.70
2023-02-24T19:02:44.983Z,70.93
2023-02-24T19:05:12.125Z,77.40
2023-02-24T19:07:39.599Z,82.97
2023-02-24T19:10:07.928Z,79.17
2023-02-24T19:12:35.216Z,74.47
2023-02-24T19:15:02.456Z,71.73
2023-02-24T19:17:29.959Z,67.27
2023-02-24T19:19:57.382Z,66.30
2023-02-24T19:22:24.808Z,67.77
2023-02-24T19:24:52.262Z,66.17
2023-02-24T19:27:19.693Z,65.47
2023-02-24T19:29:47.144Z,65.97
2023-02-24T19:32:14.704Z,66.73
2023-02-24T19:34:42.872Z,63.67
2023-02-24T19:37:10.370Z,64.77
2023-02-24T19:39:37.961Z,63.63
2023-02-24T19:42:06.569Z,62.57
2023-02-24T19:44:34.353Z,63.87
2023-02-24T19:47:01.880Z,62.97
2023-02-24T19:49:29.334Z,61.93
2023-02-24T19:51:57.670Z,63.77
2023-02-24T19:54:25.327Z,63.23
2023-02-24T19:56:55.655Z,64.93
2023-02-24T19:59:23.281Z,64.37
2023-02-24T20:01:52.006Z,65.07
2023-02-24T20:04:19.843Z,64.63
2023-02-24T20:06:47.763Z,78.20
2023-02-24T20:09:21.408Z,64.20
2023-02-24T20:11:50.624Z,65.27
2023-02-24T20:14:19.868Z,62.67
2023-02-24T20:16:47.798Z,61.80
2023-02-24T20:19:16.063Z,62.07
2023-02-24T20:21:43.670Z,61.40
2023-02-24T20:24:14.425Z,61.93
2023-02-24T20:26:46.272Z,60.20
2023-02-24T20:29:14.730Z,59.10
2023-02-24T20:31:42.665Z,60.33
2023-02-24T20:34:10.763Z,58.97
2023-02-24T20:36:38.288Z,62.50
2023-02-24T20:39:08.479Z,63.03
2023-02-24T20:41:36.022Z,65.10
2023-02-24T20:44:03.181Z,61.57
2023-02-24T20:46:32.344Z,63.03
2023-02-24T20:49:03.126Z,63.63
2023-02-24T20:51:32.478Z,63.70
2023-02-24T20:54:00.087Z,63.57
2023-02-24T20:56:34.160Z,63.10
2023-02-24T20:59:14.400Z,63.83
2023-02-24T21:01:42.521Z,60.67
2023-02-24T21:04:10.705Z,58.80
2023-02-24T21:06:38.329Z,58.97
2023-02-24T21:09:06.301Z,57.80
2023-02-24T21:11:34.079Z,59.50
2023-02-24T21:14:01.568Z,59.70
2023-02-24T21:16:29.219Z,57.80
2023-02-24T21:18:58.844Z,58.00
2023-02-24T21:21:27.094Z,57.33
2023-02-24T21:23:55.225Z,58.87
2023-02-24T21:26:26.679Z,57.50
2023-02-24T21:28:57.445Z,58.10
2023-02-24T21:31:26.473Z,59.33
2023-02-24T21:33:54.468Z,58.97
2023-02-24T21:36:25.745Z,59.17
2023-02-24T21:38:54.202Z,59.63
2023-02-24T21:41:22.390Z,60.90
2023-02-24T21:43:54.830Z,63.00
2023-02-24T21:46:24.685Z,65.67
2023-02-24T21:48:57.713Z,65.40
2023-02-24T21:51:26.654Z,65.73
2023-02-24T21:53:56.943Z,65.13
2023-02-24T21:56:29.922Z,64.80
2023-02-24T21:59:00.969Z,67.40
2023-02-24T22:01:38.316Z,63.93
2023-02-24T22:04:12.879Z,64.07
2023-02-24T22:06:41.890Z,64.13
2023-02-24T22:09:11.181Z,62.90
2023-02-24T22:11:41.208Z,62.63
2023-02-24T22:14:10.722Z,59.03
2023-02-24T22:16:38.440Z,61.33
2023-02-24T22:19:06.516Z,58.90
2023-02-24T22:21:34.432Z,60.40
2023-02-24T22:24:03.278Z,61.47
2023-02-24T22:26:32.235Z,60.60
2023-02-24T22:29:00.723Z,62.03
2023-02-24T22:31:31.550Z,61.80
2023-02-24T22:33:59.916Z,64.00
2023-02-24T22:36:34.477Z,60.80
2023-02-24T22:39:02.641Z,60.27
2023-02-24T22:41:33.908Z,60.43
2023-02-24T22:44:03.614Z,60.03
2023-02-24T22:46:34.289Z,59.30
2023-02-24T22:49:01.880Z,59.50
2023-02-24T22:51:29.490Z,58.53
2023-02-24T22:53:57.081Z,58.87
2023-02-24T22:56:29.775Z,57.37
2023-02-24T22:58:58.295Z,57.67
2023-02-24T23:01:31.868Z,58.00
2023-02-24T23:04:01.350Z,58.83
2023-02-24T23:06:30.335Z,57.87
2023-02-24T23:09:00.033Z,57.60
2023-02-24T23:11:30.295Z,58.43
2023-02-24T23:14:02.141Z,57.77
2023-02-24T23:16:33.706Z,58.93
2023-02-24T23:19:08.815Z,58.83
2023-02-24T23:21:42.875Z,58.10
2023-02-24T23:24:13.503Z,58.00
2023-02-24T23:26:45.621Z,57.33
2023-02-24T23:29:16.242Z,57.27
2023-02-24T23:31:44.046Z,56.57
2023-02-24T23:34:12.049Z,57.57
2023-02-24T23:36:43.696Z,57.83
2023-02-24T23:39:14.094Z,57.00
2023-02-24T23:41:41.681Z,54.83
2023-02-24T23:44:09.640Z,56.23
2023-02-24T23:46:37.538Z,56.23
2023-02-24T23:49:05.709Z,56.40
2023-02-24T23:51:47.109Z,58.00
2023-02-24T23:54:16.958Z,57.07
2023-02-24T23:56:44.499Z,56.37
2023-02-24T23:59:12.003Z,56.03
